createdAt,value
2022-10-30T00:00:55.479Z,18.63
2022-10-30T00:03:23.873Z,19.93
2022-10-30T00:05:53.091Z,18.30
2022-10-30T00:08:25.517Z,20.07
2022-10-30T00:10:54.418Z,20.87
2022-10-30T00:13:23.023Z,17.53
2022-10-30T00:15:52.820Z,21.60
2022-10-30T00:18:21.675Z,23.90
2022-10-30T00:20:50.414Z,25.90
2022-10-30T00:23:20.313Z,19.70
2022-10-30T00:25:50.134Z,21.13
2022-10-30T00:28:18.512Z,19.17
2022-10-30T00:30:46.915Z,21.40
2022-10-30T00:33:15.339Z,21.67
2022-10-30T00:35:49.824Z,20.77
2022-10-30T00:38:18.363Z,22.10
2022-10-30T00:40:46.850Z,22.13
2022-10-30T00:43:32.888Z,18.60
2022-10-30T00:46:04.767Z,17.87
2022-10-30T00:48:33.547Z,19.43
2022-10-30T00:51:03.382Z,15.90
2022-10-30T00:53:31.909Z,19.50
2022-10-30T00:56:02.033Z,20.03
2022-10-30T00:58:31.631Z,16.57
2022-10-30T01:01:01.468Z,17.57
2022-10-30T01:03:32.123Z,21.70
2022-10-30T01:06:02.368Z,20.57
2022-10-30T01:08:30.998Z,18.60
2022-10-30T01:11:00.411Z,22.60
2022-10-30T01:13:29.699Z,17.83
2022-10-30T01:16:08.457Z,22.60
2022-10-30T01:18:43.016Z,22.10
2022-10-30T01:21:17.588Z,17.60
2022-10-30T01:23:49.728Z,19.50
2022-10-30T01:26:25.797Z,23.67
2022-10-30T01:29:09.414Z,17.80
2022-10-30T01:31:45.459Z,24.87
2022-10-30T01:34:21.538Z,22.90
2022-10-30T01:36:53.830Z,22.70
2022-10-30T01:39:24.285Z,13.33
2022-10-30T01:41:53.329Z,21.27
2022-10-30T01:44:25.090Z,21.93
2022-10-30T01:47:01.491Z,21.27
2022-10-30T01:49:41.366Z,25.60
2022-10-30T01:52:15.208Z,26.63
2022-10-30T01:54:47.310Z,24.43
2022-10-30T01:57:20.014Z,18.20
2022-10-30T01:59:53.564Z,25.63
2022-10-30T02:02:24.004Z,20.17
2022-10-30T02:04:54.317Z,21.07
2022-10-30T02:07:26.000Z,18.40
2022-10-30T02:09:55.905Z,22.70
2022-10-30T02:12:27.786Z,20.17
2022-10-30T02:14:58.102Z,17.70
2022-10-30T02:17:27.605Z,19.10
2022-10-30T02:19:57.443Z,19.07
2022-10-30T02:22:27.731Z,19.57
2022-10-30T02:24:56.312Z,21.83
2022-10-30T02:27:26.371Z,17.63
2022-10-30T02:29:54.787Z,18.63
2022-10-30T02:32:23.646Z,19.33
2022-10-30T02:34:52.034Z,19.20
2022-10-30T02:37:20.436Z,20.97
2022-10-30T02:39:50.250Z,21.60
2022-10-30T02:42:18.677Z,18.53
2022-10-30T02:44:47.163Z,23.33
2022-10-30T02:47:16.509Z,26.00
2022-10-30T02:49:45.093Z,16.13
2022-10-30T02:52:13.460Z,14.33
2022-10-30T02:54:43.581Z,18.90
2022-10-30T02:57:13.408Z,21.83
2022-10-30T02:59:42.076Z,22.17
2022-10-30T03:02:10.544Z,17.83
2022-10-30T03:04:39.545Z,20.20
2022-10-30T03:07:08.074Z,20.00
2022-10-30T03:09:37.303Z,17.70
2022-10-30T03:12:06.015Z,18.23
2022-10-30T03:14:35.764Z,20.00
2022-10-30T03:17:05.840Z,22.77
2022-10-30T03:19:35.624Z,24.43
2022-10-30T03:22:04.437Z,22.90
2022-10-30T03:24:33.141Z,18.30
2022-10-30T03:27:01.662Z,17.73
2022-10-30T03:29:30.931Z,24.47
2022-10-30T03:32:00.764Z,16.60
2022-10-30T03:34:33.618Z,21.83
2022-10-30T03:37:06.442Z,16.23
2022-10-30T03:39:35.496Z,16.30
2022-10-30T03:42:04.625Z,18.73
2022-10-30T03:44:33.191Z,19.27
2022-10-30T03:47:03.198Z,19.93
2022-10-30T03:49:36.237Z,19.20
2022-10-30T03:52:09.937Z,22.80
2022-10-30T03:54:38.364Z,14.03
2022-10-30T03:57:06.924Z,14.77
2022-10-30T03:59:43.876Z,13.67
2022-10-30T04:02:32.331Z,15.53
2022-10-30T04:05:01.217Z,15.77
2022-10-30T04:07:29.889Z,17.50
2022-10-30T04:09:58.441Z,16.17
2022-10-30T04:12:26.938Z,13.03
2022-10-30T04:14:56.891Z,13.63
2022-10-30T04:17:25.294Z,18.00
2022-10-30T04:19:55.350Z,26.27
2022-10-30T04:22:23.750Z,17.07
2022-10-30T04:24:53.529Z,14.83
2022-10-30T04:27:22.369Z,23.57
2022-10-30T04:29:51.149Z,15.40
2022-10-30T04:32:20.105Z,20.43
2022-10-30T04:34:49.809Z,14.27
2022-10-30T04:37:19.737Z,21.20
2022-10-30T04:39:49.480Z,12.97
2022-10-30T04:42:22.874Z,13.10
2022-10-30T04:44:51.536Z,17.20
2022-10-30T04:47:20.120Z,18.17
2022-10-30T04:49:49.949Z,16.20
2022-10-30T04:52:20.131Z,16.07
2022-10-30T04:54:48.654Z,17.70
2022-10-30T04:57:17.510Z,15.63
2022-10-30T04:59:45.986Z,17.23
2022-10-30T05:02:14.804Z,18.87
2022-10-30T05:04:43.685Z,13.63
2022-10-30T05:07:12.361Z,14.03
2022-10-30T05:09:42.231Z,14.30
2022-10-30T05:12:11.816Z,16.80
2022-10-30T05:14:51.055Z,18.07
2022-10-30T05:17:19.967Z,17.77
2022-10-30T05:19:50.190Z,16.37
2022-10-30T05:22:18.653Z,13.80
2022-10-30T05:24:48.432Z,16.20
2022-10-30T05:27:17.593Z,11.63
2022-10-30T05:29:46.070Z,20.03
2022-10-30T05:32:15.210Z,15.57
2022-10-30T05:34:49.697Z,15.93
2022-10-30T05:37:21.917Z,19.23
2022-10-30T05:39:51.935Z,18.70
2022-10-30T05:42:27.090Z,11.67
2022-10-30T05:45:02.205Z,22.50
2022-10-30T05:47:35.032Z,19.60
2022-10-30T05:50:03.673Z,10.83
2022-10-30T05:52:32.174Z,16.53
2022-10-30T05:55:03.222Z,16.30
2022-10-30T05:57:43.283Z,14.17
2022-10-30T06:00:12.646Z,16.60
2022-10-30T06:02:44.080Z,11.33
2022-10-30T06:05:15.284Z,13.60
2022-10-30T06:07:44.437Z,14.40
2022-10-30T06:10:14.806Z,20.47
2022-10-30T06:13:02.786Z,13.80
2022-10-30T06:15:40.810Z,17.20
2022-10-30T06:18:09.710Z,12.77
2022-10-30T06:20:42.602Z,8.87
2022-10-30T06:23:29.574Z,14.10
2022-10-30T06:26:08.951Z,16.20
2022-10-30T06:28:43.638Z,18.33
2022-10-30T06:31:14.091Z,17.10
2022-10-30T06:33:42.533Z,12.10
2022-10-30T06:36:11.954Z,14.37
2022-10-30T06:38:40.433Z,11.33
2022-10-30T06:41:11.022Z,10.80
2022-10-30T06:44:11.480Z,11.90
2022-10-30T06:46:41.530Z,17.27
2022-10-30T06:49:10.700Z,13.73
2022-10-30T06:51:40.600Z,11.60
2022-10-30T06:54:09.111Z,11.27
2022-10-30T06:56:41.519Z,15.63
2022-10-30T06:59:19.327Z,10.20
2022-10-30T07:02:14.107Z,14.33
2022-10-30T07:04:48.890Z,16.17
2022-10-30T07:07:18.350Z,22.07
2022-10-30T07:09:47.635Z,15.37
2022-10-30T07:12:26.044Z,11.33
2022-10-30T07:15:12.140Z,15.47
2022-10-30T07:17:54.505Z,7.57
2022-10-30T07:20:26.625Z,13.23
2022-10-30T07:22:55.699Z,11.77
2022-10-30T07:25:24.538Z,14.07
2022-10-30T07:28:10.595Z,8.27
2022-10-30T07:30:45.007Z,13.70
2022-10-30T07:33:40.022Z,12.93
2022-10-30T07:36:40.427Z,13.17
2022-10-30T07:39:39.715Z,14.50
2022-10-30T07:42:50.180Z,10.93
2022-10-30T07:45:52.193Z,19.27
2022-10-30T07:49:04.212Z,10.63
2022-10-30T07:52:17.206Z,14.83
2022-10-30T07:54:55.037Z,10.03
2022-10-30T07:57:43.086Z,14.03
2022-10-30T08:00:31.253Z,11.87
2022-10-30T08:03:22.959Z,14.00
2022-10-30T08:05:54.888Z,13.90
2022-10-30T08:08:43.147Z,14.33
2022-10-30T08:11:27.744Z,13.30
2022-10-30T08:13:56.742Z,15.47
2022-10-30T08:16:25.454Z,13.83
2022-10-30T08:18:55.372Z,12.33
2022-10-30T08:21:26.424Z,13.63
2022-10-30T08:24:06.345Z,14.40
2022-10-30T08:26:36.424Z,14.40
2022-10-30T08:29:05.586Z,15.43
2022-10-30T08:31:34.090Z,10.03
2022-10-30T08:34:06.671Z,12.90
2022-10-30T08:37:08.803Z,15.68
2022-10-30T08:39:37.397Z,15.63
2022-10-30T08:42:23.705Z,14.07
2022-10-30T08:44:52.366Z,13.90
2022-10-30T08:47:23.479Z,9.32
2022-10-30T08:49:53.427Z,10.60
2022-10-30T08:52:25.629Z,12.43
2022-10-30T08:54:57.440Z,11.50
2022-10-30T08:57:28.055Z,13.70
2022-10-30T08:59:59.919Z,12.20
2022-10-30T09:02:54.682Z,11.23
2022-10-30T09:05:39.858Z,11.88
2022-10-30T09:08:26.950Z,9.45
2022-10-30T09:10:59.258Z,11.02
2022-10-30T09:13:28.474Z,12.07
2022-10-30T09:16:01.325Z,10.45
2022-10-30T09:18:31.256Z,10.10
2022-10-30T09:21:04.601Z,10.02
2022-10-30T09:23:37.941Z,15.82
2022-10-30T09:26:26.594Z,16.63
2022-10-30T09:29:04.206Z,9.27
2022-10-30T09:31:53.147Z,13.38
2022-10-30T09:34:22.667Z,10.90
2022-10-30T09:37:02.299Z,11.73
2022-10-30T09:39:49.746Z,8.02
2022-10-30T09:42:58.314Z,10.48
2022-10-30T09:46:16.567Z,14.27
2022-10-30T09:49:05.115Z,12.75
2022-10-30T09:52:13.194Z,10.15
2022-10-30T09:55:28.338Z,13.77
2022-10-30T09:58:32.753Z,17.17
2022-10-30T10:01:31.822Z,12.93
2022-10-30T10:04:47.244Z,13.52
2022-10-30T10:07:43.851Z,12.05
2022-10-30T10:10:40.222Z,10.32
2022-10-30T10:13:20.344Z,13.50
2022-10-30T10:36:54.257Z,13.65
2022-10-30T10:39:33.791Z,11.80
2022-10-30T10:42:06.254Z,11.20
2022-10-30T10:50:51.011Z,12.13
2022-10-30T10:53:54.872Z,12.48
2022-10-30T10:56:26.843Z,11.02
2022-10-30T10:58:59.947Z,10.13
2022-10-30T11:01:34.781Z,16.27
2022-10-30T11:04:11.854Z,11.55
2022-10-30T11:06:42.160Z,11.65
2022-10-30T11:09:19.564Z,14.48
2022-10-30T11:11:49.879Z,11.77
2022-10-30T11:14:20.038Z,15.95
2022-10-30T11:17:06.495Z,12.60
2022-10-30T11:19:35.219Z,8.68
2022-10-30T11:22:05.258Z,14.48
2022-10-30T11:24:35.807Z,10.35
2022-10-30T11:27:18.807Z,15.90
2022-10-30T11:29:53.278Z,12.57
2022-10-30T11:32:24.029Z,13.93
2022-10-30T11:35:22.863Z,15.77
2022-10-30T11:37:52.095Z,15.02
2022-10-30T11:40:30.951Z,14.63
2022-10-30T11:43:01.422Z,12.73
2022-10-30T11:45:33.182Z,21.02
2022-10-30T11:48:03.430Z,15.07
2022-10-30T11:50:46.151Z,10.63
2022-10-30T11:53:18.527Z,10.27
2022-10-30T11:56:00.886Z,14.05
2022-10-30T11:58:31.088Z,15.23
2022-10-30T12:01:05.007Z,14.50
2022-10-30T12:03:37.005Z,9.27
2022-10-30T12:06:10.011Z,15.05
2022-10-30T12:08:38.700Z,11.10
2022-10-30T12:11:08.719Z,12.52
2022-10-30T12:13:41.431Z,10.80
2022-10-30T12:16:16.194Z,17.95
2022-10-30T12:18:54.483Z,10.63
2022-10-30T12:21:24.412Z,8.57
2022-10-30T12:23:57.855Z,14.27
2022-10-30T12:26:27.901Z,12.05
2022-10-30T12:29:00.910Z,10.38
2022-10-30T12:31:41.190Z,11.70
2022-10-30T12:34:27.278Z,12.65
2022-10-30T12:36:58.872Z,15.68
2022-10-30T12:39:30.669Z,11.25
2022-10-30T12:42:02.663Z,11.63
2022-10-30T12:44:34.146Z,12.98
2022-10-30T12:47:05.254Z,12.98
2022-10-30T12:49:37.660Z,9.93
2022-10-30T12:52:08.889Z,11.60
2022-10-30T12:54:58.178Z,13.02
2022-10-30T12:57:43.304Z,11.77
2022-10-30T13:00:41.109Z,11.15
2022-10-30T13:03:30.885Z,16.00
2022-10-30T13:06:02.026Z,10.13
2022-10-30T13:08:34.169Z,11.07
2022-10-30T13:11:07.810Z,10.00
2022-10-30T13:13:41.400Z,13.75
2022-10-30T13:16:12.593Z,13.05
2022-10-30T13:18:41.117Z,11.98
2022-10-30T13:21:18.066Z,8.70
2022-10-30T13:23:49.910Z,13.18
2022-10-30T13:26:48.843Z,10.80
2022-10-30T13:29:22.185Z,11.57
2022-10-30T13:31:55.616Z,14.35
2022-10-30T13:34:29.417Z,12.20
2022-10-30T13:37:01.871Z,12.05
2022-10-30T13:39:33.116Z,14.82
2022-10-30T13:42:08.866Z,14.93
2022-10-30T13:44:44.292Z,13.43
2022-10-30T13:47:17.152Z,11.48
2022-10-30T13:49:57.943Z,11.27
2022-10-30T13:52:29.010Z,13.73
2022-10-30T13:55:01.091Z,12.18
2022-10-30T13:57:32.045Z,12.30
2022-10-30T14:00:04.035Z,11.65
2022-10-30T14:03:08.022Z,12.35
2022-10-30T14:05:41.067Z,12.38
2022-10-30T14:08:12.463Z,14.80
2022-10-30T14:10:44.753Z,15.18
2022-10-30T14:13:17.293Z,13.68
2022-10-30T14:15:48.113Z,11.68
2022-10-30T14:18:25.707Z,12.35
2022-10-30T14:20:54.506Z,11.50
2022-10-30T14:23:23.774Z,12.00
2022-10-30T14:26:18.779Z,16.33
2022-10-30T14:28:47.266Z,12.15
2022-10-30T14:31:17.980Z,19.02
2022-10-30T14:33:47.845Z,17.77
2022-10-30T14:36:21.377Z,7.15
2022-10-30T14:38:57.650Z,11.40
2022-10-30T14:41:41.134Z,15.80
2022-10-30T14:44:30.020Z,17.48
2022-10-30T14:47:04.543Z,14.57
2022-10-30T14:49:42.407Z,15.45
2022-10-30T14:52:17.589Z,14.38
2022-10-30T14:54:50.350Z,15.30
2022-10-30T14:57:22.915Z,15.88
2022-10-30T14:59:51.371Z,10.85
2022-10-30T15:02:33.013Z,11.20
2022-10-30T15:05:12.857Z,15.65
2022-10-30T15:07:46.070Z,18.52
2022-10-30T15:10:19.683Z,19.17
2022-10-30T15:13:02.258Z,12.40
2022-10-30T15:15:31.572Z,14.98
2022-10-30T15:18:03.237Z,19.75
2022-10-30T15:20:34.202Z,15.48
2022-10-30T15:23:05.121Z,14.30
2022-10-30T15:25:36.260Z,13.32
2022-10-30T15:28:05.635Z,11.25
2022-10-30T15:30:34.674Z,12.95
2022-10-30T15:33:21.615Z,16.75
2022-10-30T15:35:59.984Z,11.15
2022-10-30T15:38:29.241Z,13.45
2022-10-30T15:41:00.229Z,17.20
2022-10-30T15:43:31.084Z,15.73
2022-10-30T15:45:59.851Z,13.82
2022-10-30T15:48:29.865Z,15.38
2022-10-30T15:51:02.779Z,12.00
2022-10-30T15:53:36.130Z,15.70
2022-10-30T15:56:05.307Z,17.50
2022-10-30T15:58:39.450Z,13.50
2022-10-30T16:01:08.037Z,17.00
2022-10-30T16:03:36.690Z,14.52
2022-10-30T16:06:18.930Z,22.52
2022-10-30T16:08:48.082Z,18.67
2022-10-30T16:11:17.382Z,24.98
2022-10-30T16:13:45.945Z,17.73
2022-10-30T16:16:24.356Z,17.65
2022-10-30T16:18:53.486Z,17.73
2022-10-30T16:21:25.311Z,13.90
2022-10-30T16:23:55.509Z,16.23
2022-10-30T16:26:32.712Z,18.60
2022-10-30T16:29:03.212Z,17.30
2022-10-30T16:31:35.126Z,21.23
2022-10-30T16:34:05.386Z,15.43
2022-10-30T16:36:35.863Z,21.40
2022-10-30T16:39:06.599Z,21.02
2022-10-30T16:41:35.639Z,18.38
2022-10-30T16:44:18.704Z,17.55
2022-10-30T16:46:50.803Z,23.00
2022-10-30T16:49:21.353Z,31.73
2022-10-30T16:51:53.062Z,20.33
2022-10-30T16:54:23.382Z,18.33
2022-10-30T16:56:53.082Z,27.08
2022-10-30T16:59:26.540Z,23.77
2022-10-30T17:01:58.083Z,23.85
2022-10-30T17:04:30.373Z,19.48
2022-10-30T17:07:22.396Z,24.17
2022-10-30T17:09:53.858Z,20.85
2022-10-30T17:12:23.290Z,22.65
2022-10-30T17:14:55.612Z,23.15
2022-10-30T17:17:28.512Z,19.17
2022-10-30T17:19:57.974Z,15.68
2022-10-30T17:22:33.972Z,16.45
2022-10-30T17:25:02.805Z,22.75
2022-10-30T17:27:49.477Z,16.30
2022-10-30T17:30:35.595Z,25.65
2022-10-30T17:33:04.995Z,27.60
2022-10-30T17:35:36.140Z,30.50
2022-10-30T17:38:06.301Z,27.13
2022-10-30T17:40:35.143Z,26.50
2022-10-30T17:43:03.602Z,20.50
2022-10-30T17:45:32.057Z,22.23
2022-10-30T17:48:01.209Z,22.87
2022-10-30T17:50:30.094Z,25.77
2022-10-30T17:53:00.098Z,23.07
2022-10-30T17:55:31.776Z,29.03
2022-10-30T17:58:00.321Z,26.93
2022-10-30T18:00:29.423Z,21.03
2022-10-30T18:02:58.267Z,22.37
2022-10-30T18:05:28.913Z,27.30
2022-10-30T18:07:57.415Z,21.07
2022-10-30T18:10:26.202Z,25.20
2022-10-30T18:12:56.050Z,22.65
2022-10-30T18:15:29.049Z,26.23
2022-10-30T18:17:57.809Z,26.23
2022-10-30T18:20:27.226Z,25.83
2022-10-30T18:22:56.965Z,22.37
2022-10-30T18:25:26.631Z,23.70
2022-10-30T18:27:56.454Z,25.87
2022-10-30T18:30:25.822Z,28.20
2022-10-30T18:32:54.584Z,31.37
2022-10-30T18:35:27.305Z,32.97
2022-10-30T18:37:56.106Z,31.30
2022-10-30T18:40:26.619Z,31.83
2022-10-30T18:42:58.840Z,32.27
2022-10-30T18:45:31.756Z,36.93
2022-10-30T18:48:01.198Z,37.23
2022-10-30T18:50:31.072Z,33.73
2022-10-30T18:53:00.149Z,34.33
2022-10-30T18:55:33.881Z,35.97
2022-10-30T18:58:04.140Z,31.10
2022-10-30T19:00:45.104Z,39.90
2022-10-30T19:03:21.511Z,30.27
2022-10-30T19:05:52.325Z,31.33
2022-10-30T19:08:25.590Z,31.00
2022-10-30T19:10:59.500Z,34.77
2022-10-30T19:13:32.493Z,39.87
2022-10-30T19:16:01.660Z,29.70
2022-10-30T19:18:32.670Z,25.03
2022-10-30T19:21:06.501Z,35.17
2022-10-30T19:23:40.751Z,28.97
2022-10-30T19:26:09.276Z,28.77
2022-10-30T19:28:40.423Z,29.30
2022-10-30T19:31:09.112Z,29.60
2022-10-30T19:33:37.894Z,33.37
2022-10-30T19:36:07.034Z,35.30
2022-10-30T19:38:36.694Z,32.90
2022-10-30T19:41:06.595Z,35.43
2022-10-30T19:43:36.132Z,31.70
2022-10-30T19:46:06.036Z,30.43
2022-10-30T19:51:25.461Z,28.23
2022-10-30T19:53:59.426Z,33.17
2022-10-30T19:56:28.407Z,31.73
2022-10-30T19:58:56.920Z,34.63
2022-10-30T20:01:27.029Z,30.57
2022-10-30T20:03:55.605Z,32.27
2022-10-30T20:06:24.407Z,33.80
2022-10-30T20:08:53.188Z,25.97
2022-10-30T20:11:22.296Z,30.90
2022-10-30T20:13:54.650Z,31.60
2022-10-30T20:16:23.470Z,33.60
2022-10-30T20:18:55.668Z,32.73
2022-10-30T20:21:29.366Z,35.70
2022-10-30T20:23:59.423Z,34.50
2022-10-30T20:26:29.427Z,27.90
2022-10-30T20:28:58.019Z,33.43
2022-10-30T20:31:26.467Z,31.60
2022-10-30T20:34:00.310Z,30.03
2022-10-30T20:36:53.169Z,30.00
2022-10-30T20:39:24.827Z,28.13
2022-10-30T20:41:53.464Z,28.17
2022-10-30T20:44:22.642Z,29.33
2022-10-30T20:46:53.391Z,27.83
2022-10-30T20:49:27.350Z,40.00
2022-10-30T20:51:55.889Z,29.43
2022-10-30T20:54:25.674Z,29.47
2022-10-30T20:56:54.147Z,32.93
2022-10-30T20:59:22.821Z,28.33
2022-10-30T21:01:51.856Z,23.47
2022-10-30T21:04:21.521Z,31.77
2022-10-30T21:06:51.316Z,25.03
2022-10-30T21:09:20.482Z,28.13
2022-10-30T21:11:49.006Z,29.77
2022-10-30T21:14:17.488Z,30.93
2022-10-30T21:16:46.070Z,28.40
2022-10-30T21:19:14.579Z,28.23
2022-10-30T21:21:46.223Z,25.67
2022-10-30T21:24:16.466Z,31.17
2022-10-30T21:26:45.007Z,36.33
2022-10-30T21:29:13.590Z,22.07
2022-10-30T21:31:43.348Z,26.93
2022-10-30T21:34:12.063Z,28.50
2022-10-30T21:36:40.778Z,25.80
2022-10-30T21:39:11.742Z,31.63
2022-10-30T21:41:41.977Z,26.47
2022-10-30T21:44:11.106Z,22.03
2022-10-30T21:46:39.637Z,28.93
2022-10-30T21:49:09.158Z,30.37
2022-10-30T21:51:38.735Z,32.77
2022-10-30T21:54:07.623Z,28.20
2022-10-30T21:56:36.383Z,25.07
2022-10-30T21:59:06.949Z,26.17
2022-10-30T22:01:36.909Z,28.33
2022-10-30T22:04:07.934Z,28.13
2022-10-30T22:06:39.362Z,25.87
2022-10-30T22:09:07.985Z,30.63
2022-10-30T22:11:36.920Z,26.47
2022-10-30T22:14:07.553Z,23.93
2022-10-30T22:16:37.757Z,26.40
2022-10-30T22:19:06.729Z,25.77
2022-10-30T22:21:38.252Z,26.57
2022-10-30T22:24:07.102Z,26.63
2022-10-30T22:26:35.561Z,28.70
2022-10-30T22:29:03.995Z,27.97
2022-10-30T22:31:33.796Z,25.27
2022-10-30T22:34:02.855Z,22.37
2022-10-30T22:36:32.361Z,24.80
2022-10-30T22:39:02.110Z,27.77
2022-10-30T22:41:34.607Z,33.10
2022-10-30T22:44:08.750Z,26.27
2022-10-30T22:46:39.124Z,26.50
2022-10-30T22:49:08.015Z,32.60
2022-10-30T22:51:39.207Z,32.37
2022-10-30T22:54:09.908Z,27.13
2022-10-30T22:56:38.864Z,30.90
2022-10-30T22:59:08.571Z,36.23
2022-10-30T23:01:37.712Z,34.13
2022-10-30T23:04:08.769Z,28.50
2022-10-30T23:06:37.526Z,22.83
2022-10-30T23:09:08.291Z,29.57
2022-10-30T23:11:36.729Z,33.93
2022-10-30T23:14:05.531Z,33.60
2022-10-30T23:16:34.043Z,33.23
2022-10-30T23:19:02.831Z,27.87
2022-10-30T23:21:33.368Z,35.20
2022-10-30T23:24:03.555Z,33.30
2022-10-30T23:26:33.462Z,25.27
2022-10-30T23:29:02.311Z,25.90
2022-10-30T23:31:32.394Z,31.43
2022-10-30T23:34:01.748Z,32.03
2022-10-30T23:36:30.146Z,22.97
2022-10-30T23:39:00.953Z,29.20
2022-10-30T23:41:30.426Z,26.00
2022-10-30T23:43:59.920Z,20.57
2022-10-30T23:46:28.598Z,21.37
2022-10-30T23:48:57.868Z,23.90
2022-10-30T23:51:26.817Z,20.33
2022-10-30T23:53:55.918Z,21.93
2022-10-30T23:56:34.192Z,23.73
2022-10-30T23:59:06.204Z,24.37
